Bloomington, IL (61704)

8:29 PM CDT on August 22, 2014 (GMT -0500)
Vap0rz Garage | Change Station
CLOSE
Current Station
Personal Weather Station
Location: Bloomington, IL
Elevation: 853 ft
Nearby Weather Stations

Elev 853 ft 40.49 °N, 88.96 °W | Updated 14 minutes ago

Clear
Clear
77.9 °F
Feels Like 80 °F
N
6.0
Wind Variable Wind from SE
Gusts 6.0 mph

Today
High -- | Low -- °F
--% Chance of Precip.
Yesterday
High -- | Low -- °F
Precip. -- in
6:13 AM 7:43 PM
Waning Crescent, 6% visible
Pressure 29.94 in
Visibility 10.0 miles
Clouds Clear
Heat Index 80 °F
Dew Point 73 °F
Humidity 84%
Rainfall 0.67 in
Snow Depth Not available.
UV 0 out of 12
Pollen 7.10 out of 12
Air Quality Not available.
Flu Activity Not available.
METAR KBMI 230056Z 13005KT 10SM CLR 26/23 A2998 RMK AO2 T02550227 SLP138

More Conditions Fewer Conditions

Pressure 29.94 in
Visibility 10.0 miles
Clouds Clear
Heat Index 80 °F
Dew Point 73 °F
Humidity 84%
Rainfall 0.67 in
Snow Depth Not available.
UV 0 out of 12
Pollen 7.10 out of 12
Air Quality Not available.
Flu Activity Not available.
METAR KBMI 230056Z 13005KT 10SM CLR 26/23 A2998 RMK AO2 T02550227 SLP138

More Conditions Fewer Conditions

10-Day Weather Forecast

Almanac

Astronomy

Aug. 22, 2014 Rise Set
Actual Time 6:13 AM CDT 7:43 PM CDT
Civil Twilight 5:44 AM CDT 8:11 PM CDT
Nautical Twilight 5:10 AM CDT 8:46 PM CDT
Astronomical Twilight 4:33 AM CDT 9:22 PM CDT
Moon 3:35 AM CDT (8/22) 5:51 PM CDT (8/22)
Length of Visible Light 14h 27m
Length of Day
13h 29m
Tomorrow will be 2m 28s shorter.
Waning Crescent, 6% of the Moon is Illuminated
Today
Waning Crescent
Aug 25
New
Sep 2
First Quarter
Sep 8
Full
Sep 15
Last Quarter

Today's Extremes

State Highs State Lows

Community

WunderPhotos

Upload Photos

1,746,337 photos uploaded!

WunderBlogs® & News

Nearby

Snow Depth

Station Depth Elevation
No new snow has been reported.

Earthquake Activity

City Distance Mag. Time & Date
No recent earthquake activity has been reported nearby.
Minimum magnitude displayed is 2.5.

Coastal Water Temperatures

Place Temperature
No Stations Reporting

Nearby Weather Stations